createdAt,value
2019-04-26T00:00:53.209Z,12.70
2019-04-26T00:03:26.162Z,12.70
2019-04-26T00:05:56.932Z,12.60
2019-04-26T00:08:28.426Z,12.60
2019-04-26T00:11:00.627Z,12.60
2019-04-26T00:13:48.667Z,12.60
2019-04-26T00:16:23.804Z,12.60
2019-04-26T00:18:54.638Z,12.50
2019-04-26T00:21:25.133Z,12.50
2019-04-26T00:23:58.713Z,12.50
2019-04-26T00:26:29.900Z,12.50
2019-04-26T00:29:00.384Z,12.40
2019-04-26T00:31:30.852Z,12.40
2019-04-26T00:34:01.365Z,12.40
2019-04-26T00:36:31.835Z,12.40
2019-04-26T00:39:02.330Z,12.40
2019-04-26T00:41:32.872Z,12.40
2019-04-26T00:44:04.448Z,12.30
2019-04-26T00:46:37.074Z,12.30
2019-04-26T00:49:11.107Z,12.30
2019-04-26T00:51:42.713Z,12.20
2019-04-26T00:54:14.160Z,12.20
2019-04-26T00:56:45.051Z,12.20
2019-04-26T00:59:16.470Z,12.20
2019-04-26T01:01:48.662Z,12.20
2019-04-26T01:04:19.226Z,12.10
2019-04-26T01:06:51.338Z,12.10
2019-04-26T01:09:23.680Z,11.90
2019-04-26T01:11:55.578Z,11.90
2019-04-26T01:14:26.251Z,11.90
2019-04-26T01:16:57.944Z,11.90
2019-04-26T01:19:29.136Z,11.90
2019-04-26T01:22:04.802Z,11.90
2019-04-26T01:24:37.891Z,11.90
2019-04-26T01:27:09.324Z,11.90
2019-04-26T01:29:39.930Z,11.90
2019-04-26T01:32:15.376Z,11.90
2019-04-26T01:34:47.844Z,11.90
2019-04-26T01:37:19.310Z,11.90
2019-04-26T01:39:55.575Z,11.90
2019-04-26T01:42:29.148Z,11.90
2019-04-26T01:45:04.175Z,11.90
2019-04-26T01:47:35.611Z,11.80
2019-04-26T01:50:08.183Z,11.80
2019-04-26T01:52:40.148Z,11.80
2019-04-26T01:55:12.360Z,11.70
2019-04-26T01:57:43.390Z,11.70
2019-04-26T02:00:25.826Z,11.70
2019-04-26T02:02:57.993Z,11.70
2019-04-26T02:05:28.619Z,11.70
2019-04-26T02:07:59.245Z,11.70
2019-04-26T02:10:31.481Z,11.70
2019-04-26T02:13:03.598Z,11.70
2019-04-26T02:15:34.537Z,11.70
2019-04-26T02:18:05.501Z,11.60
2019-04-26T02:21:15.442Z,11.60
2019-04-26T02:23:50.919Z,11.60
2019-04-26T02:26:35.306Z,11.60
2019-04-26T02:29:13.575Z,11.50
2019-04-26T02:31:48.380Z,11.50
2019-04-26T02:34:19.150Z,11.50
2019-04-26T02:36:57.683Z,11.50
2019-04-26T02:39:29.404Z,11.50
2019-04-26T02:42:04.328Z,11.40
2019-04-26T02:44:40.791Z,11.40
2019-04-26T02:47:28.955Z,11.40
2019-04-26T02:50:05.475Z,11.30
2019-04-26T02:53:06.511Z,11.40
2019-04-26T02:56:16.531Z,11.30
2019-04-26T02:59:00.548Z,11.30
2019-04-26T03:01:34.003Z,11.30
2019-04-26T03:04:03.969Z,11.20
2019-04-26T03:07:19.424Z,11.20
2019-04-26T03:09:52.336Z,11.30
2019-04-26T03:12:27.649Z,11.20
2019-04-26T03:15:20.038Z,11.20
2019-04-26T03:17:59.552Z,11.20
2019-04-26T03:20:38.338Z,11.20
2019-04-26T03:23:13.726Z,11.10
2019-04-26T03:26:01.125Z,11.10
2019-04-26T03:28:58.619Z,11.10
2019-04-26T03:31:55.226Z,11.10
2019-04-26T03:34:54.766Z,11.00
2019-04-26T03:38:05.932Z,11.00
2019-04-26T03:41:00.837Z,10.90
2019-04-26T03:43:53.713Z,10.90
2019-04-26T03:46:48.668Z,10.90
2019-04-26T03:49:47.760Z,10.90
2019-04-26T03:52:45.563Z,10.90
2019-04-26T03:55:31.415Z,10.90
2019-04-26T03:58:26.861Z,10.90
2019-04-26T04:01:04.434Z,10.80
2019-04-26T04:03:45.076Z,10.70
2019-04-26T04:06:20.908Z,10.70
2019-04-26T04:09:09.455Z,10.70
2019-04-26T04:12:12.479Z,10.80
2019-04-26T04:15:19.075Z,10.70
2019-04-26T04:17:58.848Z,10.70
2019-04-26T04:20:54.694Z,10.80
2019-04-26T04:23:39.763Z,10.80
2019-04-26T04:26:14.563Z,10.80
2019-04-26T04:29:19.539Z,10.90
2019-04-26T04:32:09.234Z,10.90
2019-04-26T04:34:47.657Z,11.00
2019-04-26T04:37:21.211Z,11.00
2019-04-26T04:40:09.793Z,11.00
2019-04-26T04:42:55.640Z,11.10
2019-04-26T04:46:11.827Z,11.10
2019-04-26T04:49:09.875Z,11.20
2019-04-26T04:52:01.118Z,11.20
2019-04-26T04:55:07.731Z,11.20
2019-04-26T04:57:57.496Z,11.20
2019-04-26T05:01:18.240Z,11.30
2019-04-26T05:04:16.112Z,11.30
2019-04-26T05:07:16.802Z,11.40
2019-04-26T05:10:35.592Z,11.50
2019-04-26T05:13:31.416Z,11.50
2019-04-26T05:16:37.968Z,11.60
2019-04-26T05:19:36.679Z,11.60
2019-04-26T05:22:55.805Z,11.60
2019-04-26T05:26:28.742Z,11.60
2019-04-26T05:29:35.341Z,11.70
2019-04-26T05:32:24.537Z,11.80
2019-04-26T05:35:45.081Z,11.80
2019-04-26T05:38:31.742Z,11.90
2019-04-26T05:41:33.044Z,12.00
2019-04-26T05:44:32.152Z,12.10
2019-04-26T05:47:22.985Z,12.10
2019-04-26T05:50:17.082Z,12.20
2019-04-26T05:53:14.850Z,12.20
2019-04-26T05:56:34.154Z,12.30
2019-04-26T05:59:23.982Z,12.40
2019-04-26T06:02:34.750Z,12.40
2019-04-26T06:05:20.059Z,12.50
2019-04-26T06:08:31.699Z,12.50
2019-04-26T06:11:13.912Z,12.60
2019-04-26T06:14:03.735Z,12.70
2019-04-26T06:16:56.948Z,12.80
2019-04-26T06:19:40.722Z,12.90
2019-04-26T06:22:33.782Z,13.10
2019-04-26T06:25:28.753Z,13.20
2019-04-26T06:28:06.925Z,13.30
2019-04-26T06:30:57.212Z,13.40
2019-04-26T06:33:43.916Z,13.50
2019-04-26T06:36:19.136Z,13.70
2019-04-26T06:39:19.141Z,13.80
2019-04-26T06:42:27.214Z,13.90
2019-04-26T06:45:28.072Z,14.10
2019-04-26T06:48:22.229Z,14.20
2019-04-26T06:51:24.179Z,14.30
2019-04-26T06:54:13.776Z,14.40
2019-04-26T06:57:10.609Z,14.50
2019-04-26T06:59:57.431Z,14.70
2019-04-26T07:02:46.643Z,14.80
2019-04-26T07:05:27.291Z,14.90
2019-04-26T07:08:28.158Z,15.00
2019-04-26T07:11:27.826Z,15.10
2019-04-26T07:14:38.070Z,15.20
2019-04-26T07:17:41.382Z,15.40
2019-04-26T07:20:23.756Z,15.50
2019-04-26T07:23:30.138Z,15.70
2019-04-26T07:26:27.987Z,15.90
2019-04-26T07:29:26.857Z,16.00
2019-04-26T07:32:42.783Z,16.20
2019-04-26T07:35:46.764Z,16.40
2019-04-26T07:39:19.962Z,16.50
2019-04-26T07:42:42.320Z,16.70
2019-04-26T07:45:44.559Z,16.90
2019-04-26T07:48:45.045Z,17.10
2019-04-26T07:52:00.745Z,17.30
2019-04-26T07:55:15.398Z,17.60
2019-04-26T07:57:55.788Z,17.80
2019-04-26T08:00:45.287Z,18.00
2019-04-26T08:03:27.748Z,18.20
2019-04-26T08:06:07.386Z,18.40
2019-04-26T08:08:57.178Z,18.60
2019-04-26T08:11:42.971Z,18.70
2019-04-26T08:14:23.020Z,18.80
2019-04-26T08:17:04.793Z,19.00
2019-04-26T08:19:46.408Z,19.10
2019-04-26T08:22:24.308Z,19.20
2019-04-26T08:24:54.034Z,19.20
2019-04-26T08:27:27.943Z,19.40
2019-04-26T08:30:07.723Z,19.50
2019-04-26T08:32:41.137Z,19.60
2019-04-26T08:35:20.112Z,19.70
2019-04-26T08:37:52.703Z,19.80
2019-04-26T08:40:30.974Z,19.80
2019-04-26T08:43:06.607Z,19.90
2019-04-26T08:46:01.553Z,20.00
2019-04-26T08:48:22.381Z,20.10
2019-04-26T08:50:54.162Z,20.30
2019-04-26T08:53:27.890Z,20.40
2019-04-26T08:56:00.031Z,20.50
2019-04-26T08:58:34.553Z,20.60
2019-04-26T09:01:35.776Z,20.60
2019-04-26T09:04:09.980Z,20.80
2019-04-26T09:06:45.966Z,20.80
2019-04-26T09:09:22.183Z,20.90
2019-04-26T09:11:59.726Z,21.10
2019-04-26T09:14:30.580Z,21.30
2019-04-26T09:17:01.173Z,21.40
2019-04-26T09:19:32.654Z,21.50
2019-04-26T09:22:12.761Z,21.60
2019-04-26T09:24:50.835Z,21.70
2019-04-26T09:27:25.188Z,21.90
2019-04-26T09:30:09.175Z,22.10
2019-04-26T09:32:43.905Z,22.20
2019-04-26T09:35:15.295Z,22.30
2019-04-26T09:37:46.792Z,22.50
2019-04-26T09:40:21.776Z,22.50
2019-04-26T09:46:03.058Z,22.70
2019-04-26T09:48:38.092Z,22.80
2019-04-26T09:51:10.512Z,22.90
2019-04-26T09:53:43.264Z,23.00
2019-04-26T09:56:13.223Z,23.20
2019-04-26T09:58:43.711Z,23.30
2019-04-26T10:01:14.268Z,23.30
2019-04-26T10:03:44.740Z,23.40
2019-04-26T10:06:15.237Z,23.70
2019-04-26T10:08:47.057Z,23.90
2019-04-26T10:11:20.155Z,23.90
2019-04-26T10:14:07.555Z,23.90
2019-04-26T10:16:42.594Z,24.20
2019-04-26T10:19:13.093Z,24.30
2019-04-26T10:21:43.746Z,24.30
2019-04-26T10:24:14.206Z,24.40
2019-04-26T10:26:44.704Z,24.60
2019-04-26T10:29:15.226Z,24.80
2019-04-26T10:31:47.567Z,25.10
2019-04-26T10:34:19.039Z,25.60
2019-04-26T10:36:49.516Z,25.80
2019-04-26T10:39:20.407Z,26.00
2019-04-26T10:41:50.871Z,26.10
2019-04-26T10:44:21.441Z,26.20
2019-04-26T10:46:55.705Z,26.40
2019-04-26T10:49:45.800Z,26.80
2019-04-26T10:52:19.251Z,27.00
2019-04-26T10:54:53.055Z,27.20
2019-04-26T10:57:25.190Z,27.60
2019-04-26T10:59:57.296Z,27.60
2019-04-26T11:02:27.951Z,27.70
2019-04-26T11:04:59.209Z,27.60
2019-04-26T11:07:29.786Z,27.80
2019-04-26T11:10:02.871Z,28.00
2019-04-26T11:12:32.533Z,28.30
2019-04-26T11:15:06.222Z,28.60
2019-04-26T11:17:36.827Z,28.70
2019-04-26T11:20:10.357Z,28.80
2019-04-26T11:22:40.098Z,28.60
2019-04-26T11:25:10.937Z,28.40
2019-04-26T11:27:44.342Z,28.20
2019-04-26T11:30:20.535Z,27.70
2019-04-26T11:32:48.719Z,27.60
2019-04-26T11:35:19.328Z,27.60
2019-04-26T11:37:50.762Z,27.50
2019-04-26T11:40:22.256Z,27.70
2019-04-26T11:42:52.748Z,28.20
2019-04-26T11:45:23.276Z,28.50
2019-04-26T11:47:56.184Z,28.70
2019-04-26T11:50:26.003Z,28.80
2019-04-26T11:52:56.586Z,29.00
2019-04-26T11:55:29.855Z,29.30
2019-04-26T11:58:00.329Z,29.40
2019-04-26T12:00:32.456Z,29.90
2019-04-26T12:03:02.926Z,30.00
2019-04-26T12:05:40.498Z,30.50
2019-04-26T12:08:18.358Z,31.00
2019-04-26T12:10:48.820Z,31.30
2019-04-26T12:13:21.336Z,31.40
2019-04-26T12:15:52.140Z,31.50
2019-04-26T12:18:22.630Z,31.30
2019-04-26T12:20:53.111Z,31.40
2019-04-26T12:23:23.585Z,31.60
2019-04-26T12:25:54.113Z,31.80
2019-04-26T12:28:24.562Z,32.10
2019-04-26T12:30:58.565Z,32.10
2019-04-26T12:33:27.248Z,32.30
2019-04-26T12:35:57.739Z,32.50
2019-04-26T12:38:29.917Z,32.10
2019-04-26T12:41:00.583Z,32.10
2019-04-26T12:43:31.145Z,32.30
2019-04-26T12:46:14.163Z,32.20
2019-04-26T12:48:45.983Z,32.00
2019-04-26T12:51:17.342Z,31.70
2019-04-26T12:53:47.906Z,30.70
2019-04-26T12:56:18.374Z,30.40
2019-04-26T12:58:50.065Z,30.90
2019-04-26T13:01:21.222Z,31.50
2019-04-26T13:04:04.913Z,31.80
2019-04-26T13:06:38.553Z,31.80
2019-04-26T13:09:21.710Z,31.70
2019-04-26T13:11:56.646Z,31.60
2019-04-26T13:14:38.749Z,31.30
2019-04-26T13:17:15.876Z,30.80
2019-04-26T13:19:49.567Z,30.10
2019-04-26T13:22:18.765Z,29.60
2019-04-26T13:24:49.252Z,29.50
2019-04-26T13:27:19.744Z,29.30
2019-04-26T13:30:01.833Z,29.20
2019-04-26T13:32:22.406Z,28.90
2019-04-26T13:34:52.902Z,28.70
2019-04-26T13:37:23.360Z,28.30
2019-04-26T13:39:55.183Z,27.90
2019-04-26T13:42:26.716Z,27.90
2019-04-26T13:45:01.881Z,28.20
2019-04-26T13:47:36.824Z,28.50
2019-04-26T13:50:13.597Z,28.90
2019-04-26T13:52:44.091Z,29.20
2019-04-26T13:55:14.593Z,29.20
2019-04-26T13:57:46.154Z,29.30
2019-04-26T14:00:24.999Z,29.10
2019-04-26T14:02:55.501Z,29.10
2019-04-26T14:05:25.993Z,29.30
2019-04-26T14:07:56.483Z,29.20
2019-04-26T14:10:26.954Z,28.70
2019-04-26T14:12:57.455Z,28.50
2019-04-26T14:15:28.089Z,28.20
2019-04-26T14:18:00.330Z,27.90
2019-04-26T14:20:30.958Z,27.90
2019-04-26T14:23:19.400Z,28.20
2019-04-26T14:25:55.406Z,28.40
2019-04-26T14:28:25.241Z,28.30
2019-04-26T14:30:55.855Z,28.30
2019-04-26T14:33:27.144Z,28.30
2019-04-26T14:35:58.514Z,28.20
2019-04-26T14:38:35.659Z,28.20
2019-04-26T14:41:04.287Z,28.50
2019-04-26T14:43:40.447Z,28.40
2019-04-26T14:46:05.813Z,28.30
2019-04-26T14:48:36.758Z,28.10
2019-04-26T14:51:12.258Z,27.90
2019-04-26T14:53:40.744Z,27.90
2019-04-26T14:56:11.231Z,27.80
2019-04-26T14:58:44.122Z,27.80
2019-04-26T15:01:35.208Z,27.70
2019-04-26T15:04:15.588Z,27.60
2019-04-26T15:06:53.449Z,27.20
2019-04-26T15:09:29.734Z,26.80
2019-04-26T15:11:59.517Z,26.60
2019-04-26T15:14:26.985Z,26.40
2019-04-26T15:16:57.535Z,26.20
2019-04-26T15:19:27.983Z,26.10
2019-04-26T15:21:59.187Z,25.80
2019-04-26T15:24:34.985Z,25.80
2019-04-26T15:27:03.425Z,25.60
2019-04-26T15:29:34.252Z,25.60
2019-04-26T15:32:05.280Z,25.50
2019-04-26T15:34:35.900Z,25.60
2019-04-26T15:37:06.455Z,25.50
2019-04-26T15:39:44.577Z,25.50
2019-04-26T15:45:16.820Z,25.30
2019-04-26T15:47:56.861Z,25.30
2019-04-26T15:50:41.030Z,25.30
2019-04-26T15:53:14.562Z,25.30
2019-04-26T15:55:43.714Z,25.20
2019-04-26T15:58:14.201Z,25.10
2019-04-26T16:00:44.826Z,25.10
2019-04-26T16:03:15.879Z,25.00
2019-04-26T16:05:48.070Z,25.00
2019-04-26T16:08:18.785Z,24.90
2019-04-26T16:10:50.135Z,24.80
2019-04-26T16:13:21.349Z,24.80
2019-04-26T16:15:53.175Z,24.70
2019-04-26T16:18:23.662Z,24.60
2019-04-26T16:20:54.246Z,24.40
2019-04-26T16:23:24.753Z,24.40
2019-04-26T16:25:55.217Z,24.30
2019-04-26T16:28:27.363Z,24.20
2019-04-26T16:31:15.244Z,24.10
2019-04-26T16:34:06.645Z,24.10
2019-04-26T16:36:36.487Z,24.10
2019-04-26T16:39:13.120Z,24.00
2019-04-26T16:41:43.649Z,23.90
2019-04-26T16:44:14.727Z,23.80
2019-04-26T16:46:45.228Z,23.80
2019-04-26T16:49:17.389Z,23.70
2019-04-26T16:51:54.525Z,23.60
2019-04-26T16:54:26.490Z,23.60
2019-04-26T16:56:59.003Z,23.50
2019-04-26T16:59:26.849Z,23.40
2019-04-26T17:02:01.661Z,23.40
2019-04-26T17:04:32.484Z,23.30
2019-04-26T17:07:04.790Z,23.30
2019-04-26T17:09:54.444Z,23.30
2019-04-26T17:12:06.385Z,23.30
2019-04-26T17:14:40.662Z,23.30
2019-04-26T17:17:10.742Z,23.30
2019-04-26T17:19:41.259Z,23.20
2019-04-26T17:22:23.279Z,23.20
2019-04-26T17:24:53.595Z,23.10
2019-04-26T17:27:25.543Z,23.00
2019-04-26T17:29:58.466Z,23.00
2019-04-26T17:32:29.080Z,22.90
2019-04-26T17:35:03.959Z,22.80
2019-04-26T17:37:31.766Z,22.60
2019-04-26T17:40:02.359Z,22.40
2019-04-26T17:42:36.362Z,22.30
2019-04-26T17:45:07.955Z,22.20
2019-04-26T17:47:40.249Z,22.10
2019-04-26T17:50:12.034Z,22.00
2019-04-26T17:52:44.213Z,21.90
2019-04-26T17:55:15.218Z,21.80
2019-04-26T17:57:48.591Z,21.60
2019-04-26T18:00:26.394Z,21.50
2019-04-26T18:02:52.267Z,21.40
2019-04-26T18:05:24.375Z,21.30
2019-04-26T18:07:58.424Z,21.20
2019-04-26T18:10:27.128Z,21.10
2019-04-26T18:13:01.516Z,21.00
2019-04-26T18:15:33.327Z,20.90
2019-04-26T18:18:23.300Z,20.80
2019-04-26T18:20:59.374Z,20.70
2019-04-26T18:23:31.518Z,20.60
2019-04-26T18:26:03.272Z,20.50
2019-04-26T18:28:34.077Z,20.30
2019-04-26T18:31:06.250Z,20.20
2019-04-26T18:33:36.800Z,20.10
2019-04-26T18:36:07.359Z,20.00
2019-04-26T18:38:37.837Z,19.90
2019-04-26T18:41:08.488Z,19.80
2019-04-26T18:43:38.970Z,19.70
2019-04-26T18:46:13.770Z,19.60
2019-04-26T18:48:44.266Z,19.50
2019-04-26T18:51:14.820Z,19.50
2019-04-26T18:53:48.256Z,19.40
2019-04-26T18:56:18.841Z,19.40
2019-04-26T18:58:51.522Z,19.30
2019-04-26T19:01:21.648Z,19.20
2019-04-26T19:03:53.982Z,19.10
2019-04-26T19:06:31.002Z,19.10
2019-04-26T19:09:01.508Z,18.90
2019-04-26T19:11:29.463Z,18.90
2019-04-26T19:14:15.004Z,18.80
2019-04-26T19:16:46.469Z,18.70
2019-04-26T19:19:33.162Z,18.60
2019-04-26T19:22:05.439Z,18.60
2019-04-26T19:24:38.562Z,18.50
2019-04-26T19:27:08.213Z,18.40
2019-04-26T19:29:38.683Z,18.30
2019-04-26T19:32:09.185Z,18.30
2019-04-26T19:34:39.654Z,18.20
2019-04-26T19:37:10.232Z,18.20
2019-04-26T19:39:42.606Z,18.10
2019-04-26T19:42:12.924Z,18.10
2019-04-26T19:44:43.390Z,18.00
2019-04-26T19:47:22.674Z,17.90
2019-04-26T19:49:54.899Z,17.90
2019-04-26T19:52:33.626Z,17.80
2019-04-26T19:55:14.653Z,17.70
2019-04-26T19:57:53.660Z,17.60
2019-04-26T20:00:24.596Z,17.60
2019-04-26T20:02:55.877Z,17.60
2019-04-26T20:05:26.455Z,17.60
2019-04-26T20:07:58.505Z,17.60
2019-04-26T20:10:29.139Z,17.50
2019-04-26T20:12:59.701Z,17.50
2019-04-26T20:15:31.841Z,17.40
2019-04-26T20:18:04.021Z,17.30
2019-04-26T20:20:36.186Z,17.30
2019-04-26T20:23:20.151Z,17.20
2019-04-26T20:25:52.766Z,17.10
2019-04-26T20:28:23.133Z,17.00
2019-04-26T20:31:05.817Z,16.90
2019-04-26T20:33:31.157Z,16.90
2019-04-26T20:36:04.765Z,17.00
2019-04-26T20:38:42.825Z,17.00
2019-04-26T20:41:07.253Z,17.00
2019-04-26T20:43:44.385Z,17.00
2019-04-26T20:46:14.855Z,16.90
2019-04-26T20:48:42.680Z,16.90
2019-04-26T20:51:13.234Z,16.90
2019-04-26T20:53:43.980Z,16.90
2019-04-26T20:56:18.232Z,16.80
2019-04-26T20:58:47.312Z,16.70
2019-04-26T21:01:17.912Z,16.70
2019-04-26T21:03:48.481Z,16.70
2019-04-26T21:06:19.014Z,16.70
2019-04-26T21:08:49.462Z,16.70
2019-04-26T21:11:21.683Z,16.60
2019-04-26T21:13:52.461Z,16.60
2019-04-26T21:16:22.967Z,16.60
2019-04-26T21:18:53.427Z,16.50
2019-04-26T21:21:24.020Z,16.60
2019-04-26T21:23:54.562Z,16.60
2019-04-26T21:26:42.448Z,16.60
2019-04-26T21:29:20.564Z,16.50
2019-04-26T21:32:07.544Z,16.50
2019-04-26T21:34:44.962Z,16.50
2019-04-26T21:37:20.522Z,16.50
2019-04-26T21:39:53.286Z,16.40
2019-04-26T21:42:25.881Z,16.40
2019-04-26T21:44:56.430Z,16.40
2019-04-26T21:47:27.649Z,16.40
2019-04-26T21:50:00.842Z,16.40
2019-04-26T21:52:31.400Z,16.40
2019-04-26T21:55:01.878Z,16.30
2019-04-26T21:57:40.349Z,16.40
2019-04-26T22:00:13.820Z,16.30
2019-04-26T22:02:44.540Z,16.30
2019-04-26T22:05:16.242Z,16.30
2019-04-26T22:07:47.750Z,16.20
2019-04-26T22:10:25.800Z,16.10
2019-04-26T22:12:56.289Z,16.10
2019-04-26T22:15:44.258Z,16.00
2019-04-26T22:18:21.710Z,16.00
2019-04-26T22:21:04.951Z,16.10
2019-04-26T22:23:37.070Z,16.10
2019-04-26T22:26:08.629Z,16.10
2019-04-26T22:28:39.179Z,16.00
2019-04-26T22:31:13.097Z,16.00
2019-04-26T22:33:44.652Z,16.00
2019-04-26T22:36:15.315Z,16.00
2019-04-26T22:38:45.785Z,16.00
2019-04-26T22:41:16.292Z,16.00
2019-04-26T22:43:49.575Z,16.00
2019-04-26T22:46:28.247Z,15.90
2019-04-26T22:49:01.225Z,15.90
2019-04-26T22:51:28.534Z,15.80
2019-04-26T22:54:02.587Z,15.80
2019-04-26T22:56:37.006Z,15.70
2019-04-26T22:59:07.994Z,15.70
2019-04-26T23:01:39.102Z,15.70
2019-04-26T23:04:10.650Z,15.70
2019-04-26T23:06:42.478Z,15.70
2019-04-26T23:09:16.934Z,15.70
2019-04-26T23:11:47.540Z,15.60
2019-04-26T23:14:24.467Z,15.60
2019-04-26T23:17:08.067Z,15.50
2019-04-26T23:19:38.691Z,15.50
2019-04-26T23:22:10.178Z,15.50
2019-04-26T23:24:40.687Z,15.40
2019-04-26T23:27:16.368Z,15.30
2019-04-26T23:29:45.892Z,15.20
2019-04-26T23:32:18.569Z,15.20
2019-04-26T23:34:49.481Z,15.20
2019-04-26T23:37:24.244Z,15.20
2019-04-26T23:39:53.632Z,15.10
2019-04-26T23:42:25.079Z,15.10
2019-04-26T23:44:55.793Z,15.00
2019-04-26T23:47:26.283Z,14.90
2019-04-26T23:49:57.142Z,14.90
2019-04-26T23:52:29.357Z,14.90
2019-04-26T23:55:00.381Z,14.90
2019-04-26T23:57:31.284Z,14.90
